sensor_id;sensor_type;location;lat;lon;timestamp;temperature;humidity
27645;DHT22;15054;57.152;-2.118;2022-08-21T00:00:51;11.10;99.90
27645;DHT22;15054;57.152;-2.118;2022-08-21T00:03:18;11.00;99.90
27645;DHT22;15054;57.152;-2.118;2022-08-21T00:05:48;11.00;99.90
27645;DHT22;15054;57.152;-2.118;2022-08-21T00:08:17;11.00;99.90
27645;DHT22;15054;57.152;-2.118;2022-08-21T00:10:46;11.00;99.90
27645;DHT22;15054;57.152;-2.118;2022-08-21T00:13:14;10.90;99.90
27645;DHT22;15054;57.152;-2.118;2022-08-21T00:15:44;10.90;99.90
27645;DHT22;15054;57.152;-2.118;2022-08-21T00:18:12;11.00;99.90
27645;DHT22;15054;57.152;-2.118;2022-08-21T00:20:40;10.90;99.90
27645;DHT22;15054;57.152;-2.118;2022-08-21T00:23:08;10.90;99.90
27645;DHT22;15054;57.152;-2.118;2022-08-21T00:25:36;10.90;99.90
27645;DHT22;15054;57.152;-2.118;2022-08-21T00:28:03;10.90;99.90
27645;DHT22;15054;57.152;-2.118;2022-08-21T00:30:31;10.90;99.90
27645;DHT22;15054;57.152;-2.118;2022-08-21T00:32:58;10.90;99.90
27645;DHT22;15054;57.152;-2.118;2022-08-21T00:35:29;10.90;99.90
27645;DHT22;15054;57.152;-2.118;2022-08-21T00:37:57;10.90;99.90
27645;DHT22;15054;57.152;-2.118;2022-08-21T00:40:35;10.80;99.90
27645;DHT22;15054;57.152;-2.118;2022-08-21T00:43:04;10.80;99.90
27645;DHT22;15054;57.152;-2.118;2022-08-21T00:45:33;10.80;99.90
27645;DHT22;15054;57.152;-2.118;2022-08-21T00:48:00;10.80;99.90
27645;DHT22;15054;57.152;-2.118;2022-08-21T00:50:31;10.80;99.90
27645;DHT22;15054;57.152;-2.118;2022-08-21T00:53:00;10.70;99.90
27645;DHT22;15054;57.152;-2.118;2022-08-21T00:55:29;10.60;99.90
27645;DHT22;15054;57.152;-2.118;2022-08-21T00:57:59;10.60;99.90
27645;DHT22;15054;57.152;-2.118;2022-08-21T01:00:31;10.50;99.90
27645;DHT22;15054;57.152;-2.118;2022-08-21T01:03:02;10.50;99.90
27645;DHT22;15054;57.152;-2.118;2022-08-21T01:05:35;10.50;99.90
27645;DHT22;15054;57.152;-2.118;2022-08-21T01:08:03;10.40;99.90
27645;DHT22;15054;57.152;-2.118;2022-08-21T01:10:31;10.40;99.90
27645;DHT22;15054;57.152;-2.118;2022-08-21T01:12:59;10.40;99.90
27645;DHT22;15054;57.152;-2.118;2022-08-21T01:15:30;10.30;99.90
27645;DHT22;15054;57.152;-2.118;2022-08-21T01:17:58;10.30;99.90
27645;DHT22;15054;57.152;-2.118;2022-08-21T01:20:26;10.20;99.90
27645;DHT22;15054;57.152;-2.118;2022-08-21T01:23:00;10.20;99.90
27645;DHT22;15054;57.152;-2.118;2022-08-21T01:25:27;10.10;99.90
27645;DHT22;15054;57.152;-2.118;2022-08-21T01:27:55;10.10;99.90
27645;DHT22;15054;57.152;-2.118;2022-08-21T01:30:24;10.10;99.90
27645;DHT22;15054;57.152;-2.118;2022-08-21T01:32:52;10.00;99.90
27645;DHT22;15054;57.152;-2.118;2022-08-21T01:35:20;10.00;99.90
27645;DHT22;15054;57.152;-2.118;2022-08-21T01:37:48;10.00;99.90
27645;DHT22;15054;57.152;-2.118;2022-08-21T01:40:16;10.00;99.90
27645;DHT22;15054;57.152;-2.118;2022-08-21T01:42:45;10.00;99.90
27645;DHT22;15054;57.152;-2.118;2022-08-21T01:45:14;10.00;99.90
27645;DHT22;15054;57.152;-2.118;2022-08-21T01:47:44;9.90;99.90
27645;DHT22;15054;57.152;-2.118;2022-08-21T01:50:15;9.90;99.90
27645;DHT22;15054;57.152;-2.118;2022-08-21T01:52:42;9.90;99.90
27645;DHT22;15054;57.152;-2.118;2022-08-21T01:55:11;9.90;99.90
27645;DHT22;15054;57.152;-2.118;2022-08-21T01:57:38;9.90;99.90
27645;DHT22;15054;57.152;-2.118;2022-08-21T02:00:08;9.80;99.90
27645;DHT22;15054;57.152;-2.118;2022-08-21T02:02:38;9.80;99.90
27645;DHT22;15054;57.152;-2.118;2022-08-21T02:05:06;9.80;99.90
27645;DHT22;15054;57.152;-2.118;2022-08-21T02:07:45;9.80;99.90
27645;DHT22;15054;57.152;-2.118;2022-08-21T02:10:19;9.80;99.90
27645;DHT22;15054;57.152;-2.118;2022-08-21T02:12:47;9.70;99.90
27645;DHT22;15054;57.152;-2.118;2022-08-21T02:15:14;9.70;99.90
27645;DHT22;15054;57.152;-2.118;2022-08-21T02:17:47;9.70;99.90
27645;DHT22;15054;57.152;-2.118;2022-08-21T02:22:54;9.70;99.90
27645;DHT22;15054;57.152;-2.118;2022-08-21T02:25:22;9.70;99.90
27645;DHT22;15054;57.152;-2.118;2022-08-21T02:27:50;9.70;99.90
27645;DHT22;15054;57.152;-2.118;2022-08-21T02:30:25;9.70;99.90
27645;DHT22;15054;57.152;-2.118;2022-08-21T02:32:52;9.80;99.90
27645;DHT22;15054;57.152;-2.118;2022-08-21T02:35:20;9.80;99.90
27645;DHT22;15054;57.152;-2.118;2022-08-21T02:37:51;9.80;99.90
27645;DHT22;15054;57.152;-2.118;2022-08-21T02:40:21;9.80;99.90
27645;DHT22;15054;57.152;-2.118;2022-08-21T02:42:48;9.80;99.90
27645;DHT22;15054;57.152;-2.118;2022-08-21T02:45:17;9.80;99.90
27645;DHT22;15054;57.152;-2.118;2022-08-21T02:47:52;9.80;99.90
27645;DHT22;15054;57.152;-2.118;2022-08-21T02:50:23;9.80;99.90
27645;DHT22;15054;57.152;-2.118;2022-08-21T02:52:53;9.80;99.90
27645;DHT22;15054;57.152;-2.118;2022-08-21T02:55:23;9.80;99.90
27645;DHT22;15054;57.152;-2.118;2022-08-21T02:57:53;9.70;99.90
27645;DHT22;15054;57.152;-2.118;2022-08-21T03:00:23;9.80;99.90
27645;DHT22;15054;57.152;-2.118;2022-08-21T03:02:51;9.80;99.90
27645;DHT22;15054;57.152;-2.118;2022-08-21T03:05:19;9.80;99.90
27645;DHT22;15054;57.152;-2.118;2022-08-21T03:07:47;9.80;99.90
27645;DHT22;15054;57.152;-2.118;2022-08-21T03:10:15;9.80;99.90
27645;DHT22;15054;57.152;-2.118;2022-08-21T03:12:43;9.70;99.90
27645;DHT22;15054;57.152;-2.118;2022-08-21T03:15:13;9.70;99.90
27645;DHT22;15054;57.152;-2.118;2022-08-21T03:17:40;9.80;99.90
27645;DHT22;15054;57.152;-2.118;2022-08-21T03:20:08;9.80;99.90
27645;DHT22;15054;57.152;-2.118;2022-08-21T03:22:35;9.70;99.90
27645;DHT22;15054;57.152;-2.118;2022-08-21T03:25:03;9.70;99.90
27645;DHT22;15054;57.152;-2.118;2022-08-21T03:27:32;9.70;99.90
27645;DHT22;15054;57.152;-2.118;2022-08-21T03:30:02;9.80;99.90
27645;DHT22;15054;57.152;-2.118;2022-08-21T03:32:30;9.80;99.90
27645;DHT22;15054;57.152;-2.118;2022-08-21T03:34:58;9.70;99.90
27645;DHT22;15054;57.152;-2.118;2022-08-21T03:37:27;9.70;99.90
27645;DHT22;15054;57.152;-2.118;2022-08-21T03:39:54;9.80;99.90
27645;DHT22;15054;57.152;-2.118;2022-08-21T03:42:21;9.80;99.90
27645;DHT22;15054;57.152;-2.118;2022-08-21T03:44:49;9.70;99.90
27645;DHT22;15054;57.152;-2.118;2022-08-21T03:47:16;9.80;99.90
27645;DHT22;15054;57.152;-2.118;2022-08-21T03:49:43;9.80;99.90
27645;DHT22;15054;57.152;-2.118;2022-08-21T03:52:10;9.80;99.90
27645;DHT22;15054;57.152;-2.118;2022-08-21T03:54:37;9.90;99.90
27645;DHT22;15054;57.152;-2.118;2022-08-21T03:57:07;10.00;99.90
27645;DHT22;15054;57.152;-2.118;2022-08-21T03:59:36;10.00;99.90
27645;DHT22;15054;57.152;-2.118;2022-08-21T04:02:06;10.10;99.90
27645;DHT22;15054;57.152;-2.118;2022-08-21T04:04:34;10.10;99.90
27645;DHT22;15054;57.152;-2.118;2022-08-21T04:07:02;10.20;99.90
27645;DHT22;15054;57.152;-2.118;2022-08-21T04:09:29;10.20;99.90
27645;DHT22;15054;57.152;-2.118;2022-08-21T04:11:57;10.20;99.90
27645;DHT22;15054;57.152;-2.118;2022-08-21T04:14:25;10.20;99.90
27645;DHT22;15054;57.152;-2.118;2022-08-21T04:16:52;10.20;99.90
27645;DHT22;15054;57.152;-2.118;2022-08-21T04:19:19;10.20;99.90
27645;DHT22;15054;57.152;-2.118;2022-08-21T04:21:47;10.20;99.90
27645;DHT22;15054;57.152;-2.118;2022-08-21T04:24:14;10.20;99.90
27645;DHT22;15054;57.152;-2.118;2022-08-21T04:26:42;10.20;99.90
27645;DHT22;15054;57.152;-2.118;2022-08-21T04:29:09;10.20;99.90
27645;DHT22;15054;57.152;-2.118;2022-08-21T04:31:36;10.20;99.90
27645;DHT22;15054;57.152;-2.118;2022-08-21T04:34:04;10.30;99.90
27645;DHT22;15054;57.152;-2.118;2022-08-21T04:36:32;10.30;99.90
27645;DHT22;15054;57.152;-2.118;2022-08-21T04:39:00;10.30;99.90
27645;DHT22;15054;57.152;-2.118;2022-08-21T04:41:29;10.30;99.90
27645;DHT22;15054;57.152;-2.118;2022-08-21T04:43:56;10.30;99.90
27645;DHT22;15054;57.152;-2.118;2022-08-21T04:46:24;10.30;99.90
27645;DHT22;15054;57.152;-2.118;2022-08-21T04:48:51;10.30;99.90
27645;DHT22;15054;57.152;-2.118;2022-08-21T04:51:25;10.30;99.90
27645;DHT22;15054;57.152;-2.118;2022-08-21T04:54:14;10.30;99.90
27645;DHT22;15054;57.152;-2.118;2022-08-21T04:56:48;10.30;99.90
27645;DHT22;15054;57.152;-2.118;2022-08-21T04:59:20;10.40;99.90
27645;DHT22;15054;57.152;-2.118;2022-08-21T05:01:48;10.40;99.90
27645;DHT22;15054;57.152;-2.118;2022-08-21T05:04:18;10.40;99.90
27645;DHT22;15054;57.152;-2.118;2022-08-21T05:06:49;10.40;99.90
27645;DHT22;15054;57.152;-2.118;2022-08-21T05:09:18;10.40;99.90
27645;DHT22;15054;57.152;-2.118;2022-08-21T05:11:46;10.40;99.90
27645;DHT22;15054;57.152;-2.118;2022-08-21T05:14:14;10.50;99.90
27645;DHT22;15054;57.152;-2.118;2022-08-21T05:16:41;10.50;99.90
27645;DHT22;15054;57.152;-2.118;2022-08-21T05:19:11;10.40;99.90
27645;DHT22;15054;57.152;-2.118;2022-08-21T05:21:41;10.40;99.90
27645;DHT22;15054;57.152;-2.118;2022-08-21T05:24:09;10.40;99.90
27645;DHT22;15054;57.152;-2.118;2022-08-21T05:26:37;10.40;99.90
27645;DHT22;15054;57.152;-2.118;2022-08-21T05:29:13;10.40;99.90
27645;DHT22;15054;57.152;-2.118;2022-08-21T05:31:41;10.40;99.90
27645;DHT22;15054;57.152;-2.118;2022-08-21T05:34:08;10.40;99.90
27645;DHT22;15054;57.152;-2.118;2022-08-21T05:36:36;10.40;99.90
27645;DHT22;15054;57.152;-2.118;2022-08-21T05:39:04;10.40;99.90
27645;DHT22;15054;57.152;-2.118;2022-08-21T05:41:31;10.40;99.90
27645;DHT22;15054;57.152;-2.118;2022-08-21T05:44:00;10.50;99.90
27645;DHT22;15054;57.152;-2.118;2022-08-21T05:46:27;10.50;99.90
27645;DHT22;15054;57.152;-2.118;2022-08-21T05:48:54;10.60;99.90
27645;DHT22;15054;57.152;-2.118;2022-08-21T05:51:22;10.60;99.90
27645;DHT22;15054;57.152;-2.118;2022-08-21T05:53:49;10.60;99.90
27645;DHT22;15054;57.152;-2.118;2022-08-21T05:56:16;10.50;99.90
27645;DHT22;15054;57.152;-2.118;2022-08-21T05:58:43;10.50;99.90
27645;DHT22;15054;57.152;-2.118;2022-08-21T06:01:11;10.50;99.90
27645;DHT22;15054;57.152;-2.118;2022-08-21T06:03:40;10.60;99.90
27645;DHT22;15054;57.152;-2.118;2022-08-21T06:06:07;10.60;99.90
27645;DHT22;15054;57.152;-2.118;2022-08-21T06:08:34;10.60;99.90
27645;DHT22;15054;57.152;-2.118;2022-08-21T06:11:03;10.80;99.90
27645;DHT22;15054;57.152;-2.118;2022-08-21T06:13:31;10.80;99.90
27645;DHT22;15054;57.152;-2.118;2022-08-21T06:18:29;11.00;99.90
27645;DHT22;15054;57.152;-2.118;2022-08-21T06:20:56;11.10;99.90
27645;DHT22;15054;57.152;-2.118;2022-08-21T06:23:26;11.10;99.90
27645;DHT22;15054;57.152;-2.118;2022-08-21T06:26:01;11.20;99.90
27645;DHT22;15054;57.152;-2.118;2022-08-21T06:28:28;11.30;99.90
27645;DHT22;15054;57.152;-2.118;2022-08-21T06:30:55;11.40;99.90
27645;DHT22;15054;57.152;-2.118;2022-08-21T06:33:23;11.50;99.90
27645;DHT22;15054;57.152;-2.118;2022-08-21T06:35:54;11.60;99.90
27645;DHT22;15054;57.152;-2.118;2022-08-21T06:38:22;11.70;99.90
27645;DHT22;15054;57.152;-2.118;2022-08-21T06:40:49;11.80;99.90
27645;DHT22;15054;57.152;-2.118;2022-08-21T06:43:18;11.80;99.90
27645;DHT22;15054;57.152;-2.118;2022-08-21T06:45:46;11.70;99.90
27645;DHT22;15054;57.152;-2.118;2022-08-21T06:48:13;11.70;99.90
27645;DHT22;15054;57.152;-2.118;2022-08-21T06:50:45;11.70;99.90
27645;DHT22;15054;57.152;-2.118;2022-08-21T06:53:14;11.80;99.90
27645;DHT22;15054;57.152;-2.118;2022-08-21T06:55:42;11.90;99.90
27645;DHT22;15054;57.152;-2.118;2022-08-21T06:58:10;12.00;99.90
27645;DHT22;15054;57.152;-2.118;2022-08-21T07:00:42;12.20;99.90
27645;DHT22;15054;57.152;-2.118;2022-08-21T07:03:23;12.30;99.90
27645;DHT22;15054;57.152;-2.118;2022-08-21T07:05:51;12.40;99.90
27645;DHT22;15054;57.152;-2.118;2022-08-21T07:08:19;12.50;99.90
27645;DHT22;15054;57.152;-2.118;2022-08-21T07:10:47;12.60;99.90
27645;DHT22;15054;57.152;-2.118;2022-08-21T07:13:15;12.80;99.90
27645;DHT22;15054;57.152;-2.118;2022-08-21T07:15:42;12.90;99.90
27645;DHT22;15054;57.152;-2.118;2022-08-21T07:18:10;13.00;99.90
27645;DHT22;15054;57.152;-2.118;2022-08-21T07:20:39;13.00;99.90
27645;DHT22;15054;57.152;-2.118;2022-08-21T07:23:14;13.20;99.90
27645;DHT22;15054;57.152;-2.118;2022-08-21T07:25:45;13.30;99.90
27645;DHT22;15054;57.152;-2.118;2022-08-21T07:28:12;13.40;99.90
27645;DHT22;15054;57.152;-2.118;2022-08-21T07:30:40;13.50;99.90
27645;DHT22;15054;57.152;-2.118;2022-08-21T07:33:07;13.60;99.90
27645;DHT22;15054;57.152;-2.118;2022-08-21T07:35:35;13.70;99.90
27645;DHT22;15054;57.152;-2.118;2022-08-21T07:38:02;13.80;99.90
27645;DHT22;15054;57.152;-2.118;2022-08-21T07:40:30;14.00;99.90
27645;DHT22;15054;57.152;-2.118;2022-08-21T07:42:57;14.10;99.90
27645;DHT22;15054;57.152;-2.118;2022-08-21T07:45:25;14.20;99.90
27645;DHT22;15054;57.152;-2.118;2022-08-21T07:47:53;14.30;99.90
27645;DHT22;15054;57.152;-2.118;2022-08-21T07:50:24;14.30;99.90
27645;DHT22;15054;57.152;-2.118;2022-08-21T07:52:51;14.30;99.90
27645;DHT22;15054;57.152;-2.118;2022-08-21T07:55:21;14.30;99.90
27645;DHT22;15054;57.152;-2.118;2022-08-21T07:57:48;14.40;99.90
27645;DHT22;15054;57.152;-2.118;2022-08-21T08:00:20;14.50;99.90
27645;DHT22;15054;57.152;-2.118;2022-08-21T08:02:50;14.70;99.90
27645;DHT22;15054;57.152;-2.118;2022-08-21T08:05:21;14.90;99.90
27645;DHT22;15054;57.152;-2.118;2022-08-21T08:07:49;15.10;99.90
27645;DHT22;15054;57.152;-2.118;2022-08-21T08:10:17;15.40;99.90
27645;DHT22;15054;57.152;-2.118;2022-08-21T08:12:44;15.40;99.90
27645;DHT22;15054;57.152;-2.118;2022-08-21T08:15:15;15.70;99.90
27645;DHT22;15054;57.152;-2.118;2022-08-21T08:17:43;15.60;99.90
27645;DHT22;15054;57.152;-2.118;2022-08-21T08:20:11;15.30;99.90
27645;DHT22;15054;57.152;-2.118;2022-08-21T08:22:40;15.00;99.90
27645;DHT22;15054;57.152;-2.118;2022-08-21T08:25:09;15.10;99.90
27645;DHT22;15054;57.152;-2.118;2022-08-21T08:27:37;15.30;99.90
27645;DHT22;15054;57.152;-2.118;2022-08-21T08:30:07;15.70;99.90
27645;DHT22;15054;57.152;-2.118;2022-08-21T08:32:35;16.00;99.90
27645;DHT22;15054;57.152;-2.118;2022-08-21T08:35:03;16.20;99.90
27645;DHT22;15054;57.152;-2.118;2022-08-21T08:37:30;16.50;99.90
27645;DHT22;15054;57.152;-2.118;2022-08-21T08:40:00;16.80;99.90
27645;DHT22;15054;57.152;-2.118;2022-08-21T08:42:33;17.00;99.90
27645;DHT22;15054;57.152;-2.118;2022-08-21T08:45:12;17.00;99.90
27645;DHT22;15054;57.152;-2.118;2022-08-21T08:47:44;17.00;99.90
27645;DHT22;15054;57.152;-2.118;2022-08-21T08:51:07;17.10;99.90
27645;DHT22;15054;57.152;-2.118;2022-08-21T08:53:34;17.20;99.90
27645;DHT22;15054;57.152;-2.118;2022-08-21T08:56:05;17.40;99.90
27645;DHT22;15054;57.152;-2.118;2022-08-21T08:58:37;17.70;99.90
27645;DHT22;15054;57.152;-2.118;2022-08-21T09:01:13;18.00;99.90
27645;DHT22;15054;57.152;-2.118;2022-08-21T09:03:42;18.30;99.90
27645;DHT22;15054;57.152;-2.118;2022-08-21T09:09:30;18.90;99.90
27645;DHT22;15054;57.152;-2.118;2022-08-21T09:12:02;19.20;99.90
27645;DHT22;15054;57.152;-2.118;2022-08-21T09:27:50;19.10;99.90
27645;DHT22;15054;57.152;-2.118;2022-08-21T09:30:23;19.30;99.90
27645;DHT22;15054;57.152;-2.118;2022-08-21T09:32:52;19.20;99.90
27645;DHT22;15054;57.152;-2.118;2022-08-21T09:35:21;18.90;99.90
27645;DHT22;15054;57.152;-2.118;2022-08-21T09:37:54;18.70;99.90
27645;DHT22;15054;57.152;-2.118;2022-08-21T09:43:17;18.80;99.90
27645;DHT22;15054;57.152;-2.118;2022-08-21T09:45:45;18.80;99.90
27645;DHT22;15054;57.152;-2.118;2022-08-21T09:48:24;19.00;99.90
27645;DHT22;15054;57.152;-2.118;2022-08-21T09:51:07;19.30;99.90
27645;DHT22;15054;57.152;-2.118;2022-08-21T09:53:39;19.50;99.90
27645;DHT22;15054;57.152;-2.118;2022-08-21T09:56:37;19.60;99.90
27645;DHT22;15054;57.152;-2.118;2022-08-21T10:01:53;19.10;99.90
27645;DHT22;15054;57.152;-2.118;2022-08-21T10:04:32;19.10;99.90
27645;DHT22;15054;57.152;-2.118;2022-08-21T10:07:12;18.80;99.90
27645;DHT22;15054;57.152;-2.118;2022-08-21T10:09:41;18.80;99.90
27645;DHT22;15054;57.152;-2.118;2022-08-21T10:12:22;18.60;99.90
27645;DHT22;15054;57.152;-2.118;2022-08-21T10:17:53;18.60;99.90
27645;DHT22;15054;57.152;-2.118;2022-08-21T10:26:17;18.60;99.90
27645;DHT22;15054;57.152;-2.118;2022-08-21T10:28:52;18.70;99.90
27645;DHT22;15054;57.152;-2.118;2022-08-21T10:34:41;18.70;99.90
27645;DHT22;15054;57.152;-2.118;2022-08-21T10:40:07;18.30;99.90
27645;DHT22;15054;57.152;-2.118;2022-08-21T10:48:24;18.00;99.90
27645;DHT22;15054;57.152;-2.118;2022-08-21T10:50:55;18.00;99.90
27645;DHT22;15054;57.152;-2.118;2022-08-21T10:56:26;18.30;99.90
27645;DHT22;15054;57.152;-2.118;2022-08-21T11:01:49;18.60;99.90
27645;DHT22;15054;57.152;-2.118;2022-08-21T11:04:45;18.60;99.90
27645;DHT22;15054;57.152;-2.118;2022-08-21T11:07:19;18.60;99.90
27645;DHT22;15054;57.152;-2.118;2022-08-21T11:09:49;18.20;99.90
27645;DHT22;15054;57.152;-2.118;2022-08-21T11:12:40;18.00;99.90
27645;DHT22;15054;57.152;-2.118;2022-08-21T11:15:16;17.90;99.90
27645;DHT22;15054;57.152;-2.118;2022-08-21T11:20:47;17.70;99.90
27645;DHT22;15054;57.152;-2.118;2022-08-21T11:23:37;17.80;99.90
27645;DHT22;15054;57.152;-2.118;2022-08-21T11:26:10;17.90;99.90
27645;DHT22;15054;57.152;-2.118;2022-08-21T11:29:08;17.90;99.90
27645;DHT22;15054;57.152;-2.118;2022-08-21T11:37:36;17.80;99.90
27645;DHT22;15054;57.152;-2.118;2022-08-21T11:40:24;17.70;99.90
27645;DHT22;15054;57.152;-2.118;2022-08-21T11:45:51;17.60;99.90
27645;DHT22;15054;57.152;-2.118;2022-08-21T11:51:18;17.70;99.90
27645;DHT22;15054;57.152;-2.118;2022-08-21T11:54:03;17.50;99.90
27645;DHT22;15054;57.152;-2.118;2022-08-21T11:56:43;17.80;99.90
27645;DHT22;15054;57.152;-2.118;2022-08-21T11:59:19;18.00;99.90
27645;DHT22;15054;57.152;-2.118;2022-08-21T12:01:49;18.00;99.90
27645;DHT22;15054;57.152;-2.118;2022-08-21T12:04:32;17.70;99.90
27645;DHT22;15054;57.152;-2.118;2022-08-21T12:07:13;17.70;99.90
27645;DHT22;15054;57.152;-2.118;2022-08-21T12:09:53;18.10;99.90
27645;DHT22;15054;57.152;-2.118;2022-08-21T12:12:25;18.80;99.90
27645;DHT22;15054;57.152;-2.118;2022-08-21T12:15:23;19.60;99.90
27645;DHT22;15054;57.152;-2.118;2022-08-21T12:23:17;19.90;99.90
27645;DHT22;15054;57.152;-2.118;2022-08-21T12:26:09;19.40;99.90
27645;DHT22;15054;57.152;-2.118;2022-08-21T12:28:39;19.10;99.90
27645;DHT22;15054;57.152;-2.118;2022-08-21T12:31:36;18.80;99.90
27645;DHT22;15054;57.152;-2.118;2022-08-21T12:34:15;19.00;99.90
27645;DHT22;15054;57.152;-2.118;2022-08-21T12:36:46;19.40;99.90
27645;DHT22;15054;57.152;-2.118;2022-08-21T12:39:22;19.80;99.90
27645;DHT22;15054;57.152;-2.118;2022-08-21T12:41:58;20.50;99.90
27645;DHT22;15054;57.152;-2.118;2022-08-21T12:45:03;21.10;99.90
27645;DHT22;15054;57.152;-2.118;2022-08-21T12:50:21;21.80;99.90
27645;DHT22;15054;57.152;-2.118;2022-08-21T12:55:46;22.50;99.90
27645;DHT22;15054;57.152;-2.118;2022-08-21T12:58:22;22.60;99.90
27645;DHT22;15054;57.152;-2.118;2022-08-21T13:00:56;22.60;99.90
27645;DHT22;15054;57.152;-2.118;2022-08-21T13:03:24;22.90;99.90
27645;DHT22;15054;57.152;-2.118;2022-08-21T13:05:51;22.90;99.90
27645;DHT22;15054;57.152;-2.118;2022-08-21T13:08:21;23.10;99.90
27645;DHT22;15054;57.152;-2.118;2022-08-21T13:10:58;23.10;99.90
27645;DHT22;15054;57.152;-2.118;2022-08-21T13:13:40;23.10;99.90
27645;DHT22;15054;57.152;-2.118;2022-08-21T13:16:13;23.10;99.90
27645;DHT22;15054;57.152;-2.118;2022-08-21T13:19:00;23.10;99.90
27645;DHT22;15054;57.152;-2.118;2022-08-21T13:21:42;23.10;99.90
27645;DHT22;15054;57.152;-2.118;2022-08-21T13:24:23;23.20;99.90
27645;DHT22;15054;57.152;-2.118;2022-08-21T13:27:22;23.20;99.90
27645;DHT22;15054;57.152;-2.118;2022-08-21T13:30:22;23.30;99.90
27645;DHT22;15054;57.152;-2.118;2022-08-21T13:32:56;23.60;99.90
27645;DHT22;15054;57.152;-2.118;2022-08-21T13:35:44;23.30;99.90
27645;DHT22;15054;57.152;-2.118;2022-08-21T13:38:14;23.10;99.90
27645;DHT22;15054;57.152;-2.118;2022-08-21T13:40:50;22.80;99.90
27645;DHT22;15054;57.152;-2.118;2022-08-21T13:43:22;22.70;99.90
27645;DHT22;15054;57.152;-2.118;2022-08-21T13:45:55;22.50;99.90
27645;DHT22;15054;57.152;-2.118;2022-08-21T13:48:25;22.60;99.90
27645;DHT22;15054;57.152;-2.118;2022-08-21T13:50:54;22.80;99.90
27645;DHT22;15054;57.152;-2.118;2022-08-21T13:53:30;22.60;99.90
27645;DHT22;15054;57.152;-2.118;2022-08-21T13:58:54;22.20;99.90
27645;DHT22;15054;57.152;-2.118;2022-08-21T14:01:30;22.40;99.90
27645;DHT22;15054;57.152;-2.118;2022-08-21T14:04:04;22.70;99.90
27645;DHT22;15054;57.152;-2.118;2022-08-21T14:06:36;22.60;99.90
27645;DHT22;15054;57.152;-2.118;2022-08-21T14:09:13;22.30;99.90
27645;DHT22;15054;57.152;-2.118;2022-08-21T14:11:48;21.80;99.90
27645;DHT22;15054;57.152;-2.118;2022-08-21T14:14:34;21.30;99.90
27645;DHT22;15054;57.152;-2.118;2022-08-21T14:17:06;21.10;99.90
27645;DHT22;15054;57.152;-2.118;2022-08-21T14:19:51;21.20;99.90
27645;DHT22;15054;57.152;-2.118;2022-08-21T14:22:46;21.40;99.90
27645;DHT22;15054;57.152;-2.118;2022-08-21T14:25:15;21.50;99.90
27645;DHT22;15054;57.152;-2.118;2022-08-21T14:28:17;21.20;99.90
27645;DHT22;15054;57.152;-2.118;2022-08-21T14:30:46;20.70;99.90
27645;DHT22;15054;57.152;-2.118;2022-08-21T14:33:31;20.40;99.90
27645;DHT22;15054;57.152;-2.118;2022-08-21T14:35:59;20.20;99.90
27645;DHT22;15054;57.152;-2.118;2022-08-21T14:38:29;19.90;99.90
27645;DHT22;15054;57.152;-2.118;2022-08-21T14:40:59;19.80;99.90
27645;DHT22;15054;57.152;-2.118;2022-08-21T14:43:30;19.80;99.90
27645;DHT22;15054;57.152;-2.118;2022-08-21T14:45:58;19.90;99.90
27645;DHT22;15054;57.152;-2.118;2022-08-21T14:48:27;19.90;99.90
27645;DHT22;15054;57.152;-2.118;2022-08-21T14:50:54;19.90;99.90
27645;DHT22;15054;57.152;-2.118;2022-08-21T14:53:26;19.70;99.90
27645;DHT22;15054;57.152;-2.118;2022-08-21T14:55:53;19.60;99.90
27645;DHT22;15054;57.152;-2.118;2022-08-21T14:58:48;19.40;99.90
27645;DHT22;15054;57.152;-2.118;2022-08-21T15:01:17;19.40;99.90
27645;DHT22;15054;57.152;-2.118;2022-08-21T15:03:45;19.40;99.90
27645;DHT22;15054;57.152;-2.118;2022-08-21T15:06:15;19.30;99.90
27645;DHT22;15054;57.152;-2.118;2022-08-21T15:08:44;19.30;99.90
27645;DHT22;15054;57.152;-2.118;2022-08-21T15:11:14;19.10;99.90
27645;DHT22;15054;57.152;-2.118;2022-08-21T15:14:06;19.10;99.90
27645;DHT22;15054;57.152;-2.118;2022-08-21T15:16:35;19.00;99.90
27645;DHT22;15054;57.152;-2.118;2022-08-21T15:19:03;18.90;99.90
27645;DHT22;15054;57.152;-2.118;2022-08-21T15:21:30;18.80;99.90
27645;DHT22;15054;57.152;-2.118;2022-08-21T15:23:57;18.70;99.90
27645;DHT22;15054;57.152;-2.118;2022-08-21T15:26:24;18.50;99.90
27645;DHT22;15054;57.152;-2.118;2022-08-21T15:28:52;18.30;99.90
27645;DHT22;15054;57.152;-2.118;2022-08-21T15:31:19;18.30;99.90
27645;DHT22;15054;57.152;-2.118;2022-08-21T15:33:46;18.30;99.90
27645;DHT22;15054;57.152;-2.118;2022-08-21T15:36:13;18.50;99.90
27645;DHT22;15054;57.152;-2.118;2022-08-21T15:38:40;18.50;99.90
27645;DHT22;15054;57.152;-2.118;2022-08-21T15:41:07;18.50;99.90
27645;DHT22;15054;57.152;-2.118;2022-08-21T15:43:55;18.70;99.90
27645;DHT22;15054;57.152;-2.118;2022-08-21T15:46:22;18.80;99.90
27645;DHT22;15054;57.152;-2.118;2022-08-21T15:48:49;18.70;99.90
27645;DHT22;15054;57.152;-2.118;2022-08-21T15:51:17;18.70;99.90
27645;DHT22;15054;57.152;-2.118;2022-08-21T15:53:45;18.80;99.90
27645;DHT22;15054;57.152;-2.118;2022-08-21T15:56:24;18.90;99.90
27645;DHT22;15054;57.152;-2.118;2022-08-21T15:58:57;19.00;99.90
27645;DHT22;15054;57.152;-2.118;2022-08-21T16:01:26;19.00;99.90
27645;DHT22;15054;57.152;-2.118;2022-08-21T16:03:54;19.00;99.90
27645;DHT22;15054;57.152;-2.118;2022-08-21T16:06:22;19.00;99.90
27645;DHT22;15054;57.152;-2.118;2022-08-21T16:09:04;19.00;99.90
27645;DHT22;15054;57.152;-2.118;2022-08-21T16:11:32;19.00;99.90
27645;DHT22;15054;57.152;-2.118;2022-08-21T16:13:59;18.90;99.90
27645;DHT22;15054;57.152;-2.118;2022-08-21T16:16:26;18.90;99.90
27645;DHT22;15054;57.152;-2.118;2022-08-21T16:18:57;18.90;99.90
27645;DHT22;15054;57.152;-2.118;2022-08-21T16:21:24;19.00;99.90
27645;DHT22;15054;57.152;-2.118;2022-08-21T16:23:51;19.00;99.90
27645;DHT22;15054;57.152;-2.118;2022-08-21T16:26:19;19.00;99.90
27645;DHT22;15054;57.152;-2.118;2022-08-21T16:28:48;18.90;99.90
27645;DHT22;15054;57.152;-2.118;2022-08-21T16:31:18;18.80;99.90
27645;DHT22;15054;57.152;-2.118;2022-08-21T16:33:49;18.70;99.90
27645;DHT22;15054;57.152;-2.118;2022-08-21T16:36:23;18.60;99.90
27645;DHT22;15054;57.152;-2.118;2022-08-21T16:38:53;18.50;99.90
27645;DHT22;15054;57.152;-2.118;2022-08-21T16:41:22;18.40;99.90
27645;DHT22;15054;57.152;-2.118;2022-08-21T16:43:51;18.30;99.90
27645;DHT22;15054;57.152;-2.118;2022-08-21T16:46:19;18.30;99.90
27645;DHT22;15054;57.152;-2.118;2022-08-21T16:48:47;18.20;99.90
27645;DHT22;15054;57.152;-2.118;2022-08-21T16:51:16;18.20;99.90
27645;DHT22;15054;57.152;-2.118;2022-08-21T16:53:43;18.20;99.90
27645;DHT22;15054;57.152;-2.118;2022-08-21T16:56:13;18.10;99.90
27645;DHT22;15054;57.152;-2.118;2022-08-21T16:58:44;18.00;99.90
27645;DHT22;15054;57.152;-2.118;2022-08-21T17:01:17;17.90;99.90
27645;DHT22;15054;57.152;-2.118;2022-08-21T17:03:47;17.80;99.90
27645;DHT22;15054;57.152;-2.118;2022-08-21T17:06:18;17.60;99.90